sensor_id;sensor_type;location;lat;lon;timestamp;pressure;altitude;pressure_sealevel;temperature;humidity
5296;BME280;2670;42.720;23.336;2023-04-05T00:01:16;-22436.69;;;-0.14;100.00
5296;BME280;2670;42.720;23.336;2023-04-05T00:03:44;-22436.84;;;-0.14;100.00
5296;BME280;2670;42.720;23.336;2023-04-05T00:06:11;-22435.22;;;-0.19;100.00
5296;BME280;2670;42.720;23.336;2023-04-05T00:08:40;-22437.31;;;-0.12;100.00
5296;BME280;2670;42.720;23.336;2023-04-05T00:11:08;-22434.75;;;-0.21;100.00
5296;BME280;2670;42.720;23.336;2023-04-05T00:13:35;-22435.22;;;-0.19;100.00
5296;BME280;2670;42.720;23.336;2023-04-05T00:16:04;-22436.25;;;-0.16;100.00
5296;BME280;2670;42.720;23.336;2023-04-05T00:18:32;-22435.81;;;-0.17;100.00
5296;BME280;2670;42.720;23.336;2023-04-05T00:20:59;-22436.25;;;-0.16;100.00
5296;BME280;2670;42.720;23.336;2023-04-05T00:23:26;-22436.41;;;-0.15;100.00
5296;BME280;2670;42.720;23.336;2023-04-05T00:25:53;-22435.34;;;-0.19;100.00
5296;BME280;2670;42.720;23.336;2023-04-05T00:28:21;-22433.72;;;-0.24;100.00
5296;BME280;2670;42.720;23.336;2023-04-05T00:30:50;-22434.75;;;-0.21;100.00
5296;BME280;2670;42.720;23.336;2023-04-05T00:33:18;-22437.75;;;-0.11;100.00
5296;BME280;2670;42.720;23.336;2023-04-05T00:35:45;-22435.06;;;-0.20;100.00
5296;BME280;2670;42.720;23.336;2023-04-05T00:38:12;-22435.94;;;-0.17;100.00
5296;BME280;2670;42.720;23.336;2023-04-05T00:40:38;-22437.47;;;-0.12;100.00
5296;BME280;2670;42.720;23.336;2023-04-05T00:43:05;-22434.59;;;-0.21;100.00
5296;BME280;2670;42.720;23.336;2023-04-05T00:45:32;-22435.81;;;-0.17;100.00
5296;BME280;2670;42.720;23.336;2023-04-05T00:47:59;-22437.91;;;-0.10;100.00
5296;BME280;2670;42.720;23.336;2023-04-05T00:50:27;-22437.16;;;-0.13;100.00
5296;BME280;2670;42.720;23.336;2023-04-05T00:52:55;-22435.81;;;-0.17;100.00
5296;BME280;2670;42.720;23.336;2023-04-05T00:55:22;-22435.50;;;-0.18;100.00
5296;BME280;2670;42.720;23.336;2023-04-05T00:57:49;-22436.84;;;-0.14;100.00
5296;BME280;2670;42.720;23.336;2023-04-05T01:00:16;-22438.66;;;-0.08;100.00
5296;BME280;2670;42.720;23.336;2023-04-05T01:02:48;-22438.34;;;-0.09;100.00
5296;BME280;2670;42.720;23.336;2023-04-05T01:05:24;-22437.00;;;-0.13;100.00
5296;BME280;2670;42.720;23.336;2023-04-05T01:08:02;-22436.84;;;-0.14;100.00
5296;BME280;2670;42.720;23.336;2023-04-05T01:10:35;-22437.91;;;-0.10;100.00
5296;BME280;2670;42.720;23.336;2023-04-05T01:13:04;-22440.44;;;-0.02;100.00
5296;BME280;2670;42.720;23.336;2023-04-05T01:15:31;-22438.06;;;-0.10;100.00
5296;BME280;2670;42.720;23.336;2023-04-05T01:17:58;-22438.66;;;-0.08;100.00
5296;BME280;2670;42.720;23.336;2023-04-05T01:20:26;-22436.09;;;-0.16;100.00
5296;BME280;2670;42.720;23.336;2023-04-05T01:23:15;-22439.09;;;-0.06;100.00
5296;BME280;2670;42.720;23.336;2023-04-05T01:26:31;-22437.00;;;-0.13;100.00
5296;BME280;2670;42.720;23.336;2023-04-05T01:29:38;-22438.66;;;-0.08;100.00
5296;BME280;2670;42.720;23.336;2023-04-05T01:32:14;-22437.91;;;-0.10;100.00
5296;BME280;2670;42.720;23.336;2023-04-05T01:34:48;-22439.25;;;-0.06;100.00
5296;BME280;2670;42.720;23.336;2023-04-05T01:37:19;-22437.16;;;-0.13;100.00
5296;BME280;2670;42.720;23.336;2023-04-05T01:39:46;-22437.75;;;-0.11;100.00
5296;BME280;2670;42.720;23.336;2023-04-05T01:42:13;-22442.69;;;0.06;100.00
5296;BME280;2670;42.720;23.336;2023-04-05T01:44:41;-22440.91;;;0.00;100.00
5296;BME280;2670;42.720;23.336;2023-04-05T01:47:08;-22437.00;;;-0.13;100.00
5296;BME280;2670;42.720;23.336;2023-04-05T01:49:35;-22438.81;;;-0.07;100.00
5296;BME280;2670;42.720;23.336;2023-04-05T01:52:01;-22437.31;;;-0.12;100.00
5296;BME280;2670;42.720;23.336;2023-04-05T01:54:28;-22437.47;;;-0.12;100.00
5296;BME280;2670;42.720;23.336;2023-04-05T01:56:55;-22438.81;;;-0.07;100.00
5296;BME280;2670;42.720;23.336;2023-04-05T01:59:22;-22437.31;;;-0.12;100.00
5296;BME280;2670;42.720;23.336;2023-04-05T02:01:50;-22438.06;;;-0.10;100.00
5296;BME280;2670;42.720;23.336;2023-04-05T02:04:17;-22438.34;;;-0.09;100.00
5296;BME280;2670;42.720;23.336;2023-04-05T02:06:43;-22440.44;;;-0.02;100.00
5296;BME280;2670;42.720;23.336;2023-04-05T02:09:10;-22438.66;;;-0.08;100.00
5296;BME280;2670;42.720;23.336;2023-04-05T02:11:37;-22438.66;;;-0.08;100.00
5296;BME280;2670;42.720;23.336;2023-04-05T02:14:03;-22441.06;;;0.01;100.00
5296;BME280;2670;42.720;23.336;2023-04-05T02:16:30;-22437.59;;;-0.11;100.00
5296;BME280;2670;42.720;23.336;2023-04-05T02:18:59;-22439.84;;;-0.04;100.00
5296;BME280;2670;42.720;23.336;2023-04-05T02:21:26;-22439.69;;;-0.04;100.00
5296;BME280;2670;42.720;23.336;2023-04-05T02:23:53;-22438.81;;;-0.07;100.00
5296;BME280;2670;42.720;23.336;2023-04-05T02:26:20;-22438.06;;;-0.10;100.00
5296;BME280;2670;42.720;23.336;2023-04-05T02:28:47;-22438.34;;;-0.09;100.00
5296;BME280;2670;42.720;23.336;2023-04-05T02:31:13;-22439.41;;;-0.05;100.00
5296;BME280;2670;42.720;23.336;2023-04-05T02:33:40;-22437.75;;;-0.11;100.00
5296;BME280;2670;42.720;23.336;2023-04-05T02:36:11;-22439.25;;;-0.06;100.00
5296;BME280;2670;42.720;23.336;2023-04-05T02:38:38;-22441.34;;;0.02;100.00
5296;BME280;2670;42.720;23.336;2023-04-05T02:41:07;-22442.69;;;0.06;100.00
5296;BME280;2670;42.720;23.336;2023-04-05T02:43:34;-22441.78;;;0.03;100.00
5296;BME280;2670;42.720;23.336;2023-04-05T02:46:00;-22441.06;;;0.01;100.00
5296;BME280;2670;42.720;23.336;2023-04-05T02:48:27;-22442.25;;;0.05;100.00
5296;BME280;2670;42.720;23.336;2023-04-05T02:50:54;-22444.03;;;0.11;100.00
5296;BME280;2670;42.720;23.336;2023-04-05T02:53:22;-22441.06;;;0.01;100.00
5296;BME280;2670;42.720;23.336;2023-04-05T02:55:52;-22442.09;;;0.04;100.00
5296;BME280;2670;42.720;23.336;2023-04-05T02:58:19;-22440.16;;;-0.03;100.00
5296;BME280;2670;42.720;23.336;2023-04-05T03:00:46;-22442.84;;;0.07;100.00
5296;BME280;2670;42.720;23.336;2023-04-05T03:03:16;-22439.41;;;-0.05;100.00
5296;BME280;2670;42.720;23.336;2023-04-05T03:05:44;-22441.34;;;0.02;100.00
5296;BME280;2670;42.720;23.336;2023-04-05T03:08:11;-22440.00;;;-0.03;100.00
5296;BME280;2670;42.720;23.336;2023-04-05T03:10:44;-22439.25;;;-0.06;100.00
5296;BME280;2670;42.720;23.336;2023-04-05T03:13:12;-22439.41;;;-0.05;100.00
5296;BME280;2670;42.720;23.336;2023-04-05T03:15:39;-22441.06;;;0.01;100.00
5296;BME280;2670;42.720;23.336;2023-04-05T03:18:08;-22441.50;;;0.02;100.00
5296;BME280;2670;42.720;23.336;2023-04-05T03:20:36;-22442.25;;;0.05;100.00
5296;BME280;2670;42.720;23.336;2023-04-05T03:23:05;-22440.00;;;-0.03;100.00
5296;BME280;2670;42.720;23.336;2023-04-05T03:25:33;-22439.09;;;-0.06;100.00
5296;BME280;2670;42.720;23.336;2023-04-05T03:28:04;-22439.84;;;-0.04;100.00
5296;BME280;2670;42.720;23.336;2023-04-05T03:30:31;-22442.69;;;0.06;100.00
5296;BME280;2670;42.720;23.336;2023-04-05T03:32:58;-22442.25;;;0.05;100.00
5296;BME280;2670;42.720;23.336;2023-04-05T03:35:26;-22442.09;;;0.04;100.00
5296;BME280;2670;42.720;23.336;2023-04-05T03:37:53;-22442.69;;;0.06;100.00
5296;BME280;2670;42.720;23.336;2023-04-05T03:40:21;-22443.75;;;0.10;100.00
5296;BME280;2670;42.720;23.336;2023-04-05T03:42:48;-22446.59;;;0.19;100.00
5296;BME280;2670;42.720;23.336;2023-04-05T03:45:16;-22443.44;;;0.09;100.00
5296;BME280;2670;42.720;23.336;2023-04-05T03:47:43;-22443.00;;;0.07;100.00
5296;BME280;2670;42.720;23.336;2023-04-05T03:50:10;-22443.59;;;0.09;100.00
5296;BME280;2670;42.720;23.336;2023-04-05T03:52:37;-22441.66;;;0.03;100.00
5296;BME280;2670;42.720;23.336;2023-04-05T03:55:04;-22443.16;;;0.08;100.00
5296;BME280;2670;42.720;23.336;2023-04-05T03:57:31;-22440.59;;;-0.01;100.00
5296;BME280;2670;42.720;23.336;2023-04-05T03:59:57;-22442.41;;;0.05;100.00
5296;BME280;2670;42.720;23.336;2023-04-05T04:02:25;-22443.28;;;0.08;100.00
5296;BME280;2670;42.720;23.336;2023-04-05T04:04:52;-22444.19;;;0.11;100.00
5296;BME280;2670;42.720;23.336;2023-04-05T04:07:19;-22444.34;;;0.12;100.00
5296;BME280;2670;42.720;23.336;2023-04-05T04:09:45;-22441.34;;;0.02;100.00
5296;BME280;2670;42.720;23.336;2023-04-05T04:12:12;-22443.75;;;0.10;100.00
5296;BME280;2670;42.720;23.336;2023-04-05T04:14:39;-22439.41;;;-0.05;100.00
5296;BME280;2670;42.720;23.336;2023-04-05T04:17:06;-22441.19;;;0.01;100.00
5296;BME280;2670;42.720;23.336;2023-04-05T04:19:34;-22442.25;;;0.05;100.00
5296;BME280;2670;42.720;23.336;2023-04-05T04:22:01;-22442.69;;;0.06;100.00
5296;BME280;2670;42.720;23.336;2023-04-05T04:24:28;-22444.03;;;0.11;100.00
5296;BME280;2670;42.720;23.336;2023-04-05T04:26:57;-22443.91;;;0.10;100.00
5296;BME280;2670;42.720;23.336;2023-04-05T04:29:23;-22446.13;;;0.18;100.00
5296;BME280;2670;42.720;23.336;2023-04-05T04:31:55;-22447.19;;;0.21;100.00
5296;BME280;2670;42.720;23.336;2023-04-05T04:34:22;-22443.16;;;0.08;100.00
5296;BME280;2670;42.720;23.336;2023-04-05T04:36:51;-22443.44;;;0.09;100.00
5296;BME280;2670;42.720;23.336;2023-04-05T04:39:26;-22442.09;;;0.04;100.00
5296;BME280;2670;42.720;23.336;2023-04-05T04:41:56;-22440.75;;;-0.01;100.00
5296;BME280;2670;42.720;23.336;2023-04-05T04:44:23;-22443.16;;;0.08;100.00
5296;BME280;2670;42.720;23.336;2023-04-05T04:46:55;-22445.84;;;0.17;100.00
5296;BME280;2670;42.720;23.336;2023-04-05T04:49:22;-22445.69;;;0.16;100.00
5296;BME280;2670;42.720;23.336;2023-04-05T04:51:48;-22443.00;;;0.07;100.00
5296;BME280;2670;42.720;23.336;2023-04-05T04:54:17;-22445.84;;;0.17;100.00
5296;BME280;2670;42.720;23.336;2023-04-05T04:56:45;-22442.41;;;0.05;100.00
5296;BME280;2670;42.720;23.336;2023-04-05T04:59:12;-22443.28;;;0.08;100.00
5296;BME280;2670;42.720;23.336;2023-04-05T05:01:40;-22442.25;;;0.05;100.00
5296;BME280;2670;42.720;23.336;2023-04-05T05:04:07;-22442.41;;;0.05;100.00
5296;BME280;2670;42.720;23.336;2023-04-05T05:06:33;-22442.69;;;0.06;100.00
5296;BME280;2670;42.720;23.336;2023-04-05T05:09:00;-22443.75;;;0.10;100.00
5296;BME280;2670;42.720;23.336;2023-04-05T05:11:28;-22447.19;;;0.21;100.00
5296;BME280;2670;42.720;23.336;2023-04-05T05:13:55;-22445.38;;;0.15;100.00
5296;BME280;2670;42.720;23.336;2023-04-05T05:16:21;-22444.66;;;0.13;100.00
5296;BME280;2670;42.720;23.336;2023-04-05T05:18:49;-22443.75;;;0.10;100.00
5296;BME280;2670;42.720;23.336;2023-04-05T05:21:16;-22444.34;;;0.12;100.00
5296;BME280;2670;42.720;23.336;2023-04-05T05:23:43;-22447.19;;;0.21;100.00
5296;BME280;2670;42.720;23.336;2023-04-05T05:26:09;-22449.75;;;0.30;100.00
5296;BME280;2670;42.720;23.336;2023-04-05T05:28:38;-22448.69;;;0.27;100.00
5296;BME280;2670;42.720;23.336;2023-04-05T05:31:05;-22449.44;;;0.29;100.00
5296;BME280;2670;42.720;23.336;2023-04-05T05:33:32;-22447.63;;;0.23;100.00
5296;BME280;2670;42.720;23.336;2023-04-05T05:35:58;-22445.09;;;0.14;100.00
5296;BME280;2670;42.720;23.336;2023-04-05T05:38:25;-22446.75;;;0.20;100.00
5296;BME280;2670;42.720;23.336;2023-04-05T05:40:54;-22448.09;;;0.24;100.00
5296;BME280;2670;42.720;23.336;2023-04-05T05:43:22;-22452.13;;;0.38;100.00
5296;BME280;2670;42.720;23.336;2023-04-05T05:45:50;-22451.97;;;0.38;100.00
5296;BME280;2670;42.720;23.336;2023-04-05T05:48:16;-22454.06;;;0.45;100.00
5296;BME280;2670;42.720;23.336;2023-04-05T05:50:43;-22452.88;;;0.41;100.00
5296;BME280;2670;42.720;23.336;2023-04-05T05:53:13;-22457.66;;;0.57;100.00
5296;BME280;2670;42.720;23.336;2023-04-05T05:55:40;-22459.00;;;0.62;100.00
5296;BME280;2670;42.720;23.336;2023-04-05T05:58:07;-22461.41;;;0.70;100.00
5296;BME280;2670;42.720;23.336;2023-04-05T06:00:33;-22460.66;;;0.67;100.00
5296;BME280;2670;42.720;23.336;2023-04-05T06:03:02;-22463.06;;;0.76;100.00
5296;BME280;2670;42.720;23.336;2023-04-05T06:05:28;-22465.16;;;0.83;100.00
5296;BME280;2670;42.720;23.336;2023-04-05T06:07:55;-22462.31;;;0.73;100.00
5296;BME280;2670;42.720;23.336;2023-04-05T06:10:22;-22461.56;;;0.70;100.00
5296;BME280;2670;42.720;23.336;2023-04-05T06:12:49;-22462.75;;;0.74;100.00
5296;BME280;2670;42.720;23.336;2023-04-05T06:15:16;-22459.63;;;0.64;100.00
5296;BME280;2670;42.720;23.336;2023-04-05T06:17:43;-22462.75;;;0.74;100.00
5296;BME280;2670;42.720;23.336;2023-04-05T06:20:11;-22460.22;;;0.66;100.00
5296;BME280;2670;42.720;23.336;2023-04-05T06:22:38;-22462.16;;;0.72;100.00
5296;BME280;2670;42.720;23.336;2023-04-05T06:25:07;-22465.31;;;0.83;100.00
5296;BME280;2670;42.720;23.336;2023-04-05T06:27:34;-22463.81;;;0.78;100.00
5296;BME280;2670;42.720;23.336;2023-04-05T06:30:01;-22464.56;;;0.81;100.00
5296;BME280;2670;42.720;23.336;2023-04-05T06:32:28;-22463.66;;;0.78;100.00
5296;BME280;2670;42.720;23.336;2023-04-05T06:34:55;-22467.84;;;0.92;100.00
5296;BME280;2670;42.720;23.336;2023-04-05T06:37:23;-22467.25;;;0.90;100.00
5296;BME280;2670;42.720;23.336;2023-04-05T06:39:49;-22466.50;;;0.87;100.00
5296;BME280;2670;42.720;23.336;2023-04-05T06:42:16;-22471.28;;;1.04;100.00
5296;BME280;2670;42.720;23.336;2023-04-05T06:44:43;-22471.00;;;1.03;100.00
5296;BME280;2670;42.720;23.336;2023-04-05T06:47:10;-22472.34;;;1.07;100.00
5296;BME280;2670;42.720;23.336;2023-04-05T06:49:37;-22470.84;;;1.02;100.00
5296;BME280;2670;42.720;23.336;2023-04-05T06:52:04;-22472.47;;;1.08;100.00
5296;BME280;2670;42.720;23.336;2023-04-05T06:54:32;-22476.06;;;1.20;100.00
5296;BME280;2670;42.720;23.336;2023-04-05T06:56:59;-22476.06;;;1.20;100.00
5296;BME280;2670;42.720;23.336;2023-04-05T06:59:27;-22475.94;;;1.19;100.00
5296;BME280;2670;42.720;23.336;2023-04-05T07:01:54;-22476.38;;;1.21;100.00
5296;BME280;2670;42.720;23.336;2023-04-05T07:04:20;-22476.81;;;1.22;100.00
5296;BME280;2670;42.720;23.336;2023-04-05T07:06:47;-22476.81;;;1.22;100.00
5296;BME280;2670;42.720;23.336;2023-04-05T07:09:14;-22479.97;;;1.33;100.00
5296;BME280;2670;42.720;23.336;2023-04-05T07:11:42;-22480.56;;;1.35;100.00
5296;BME280;2670;42.720;23.336;2023-04-05T07:14:12;-22484.59;;;1.49;100.00
5296;BME280;2670;42.720;23.336;2023-04-05T07:16:39;-22479.97;;;1.33;100.00
5296;BME280;2670;42.720;23.336;2023-04-05T07:19:06;-22482.81;;;1.43;100.00
5296;BME280;2670;42.720;23.336;2023-04-05T07:21:32;-22485.19;;;1.51;100.00
5296;BME280;2670;42.720;23.336;2023-04-05T07:23:59;-22482.06;;;1.40;100.00
5296;BME280;2670;42.720;23.336;2023-04-05T07:26:27;-22482.22;;;1.41;100.00
5296;BME280;2670;42.720;23.336;2023-04-05T07:28:55;-22482.50;;;1.42;100.00
5296;BME280;2670;42.720;23.336;2023-04-05T07:31:22;-22481.31;;;1.38;100.00
5296;BME280;2670;42.720;23.336;2023-04-05T07:33:49;-22480.41;;;1.35;100.00
5296;BME280;2670;42.720;23.336;2023-04-05T07:36:15;-22480.72;;;1.36;100.00
5296;BME280;2670;42.720;23.336;2023-04-05T07:38:42;-22479.66;;;1.32;100.00
5296;BME280;2670;42.720;23.336;2023-04-05T07:41:09;-22476.81;;;1.22;100.00
5296;BME280;2670;42.720;23.336;2023-04-05T07:43:35;-22482.22;;;1.41;100.00
5296;BME280;2670;42.720;23.336;2023-04-05T07:46:04;-22481.75;;;1.39;100.00
5296;BME280;2670;42.720;23.336;2023-04-05T07:48:31;-22479.38;;;1.31;100.00
5296;BME280;2670;42.720;23.336;2023-04-05T07:51:02;-22481.75;;;1.39;100.00
5296;BME280;2670;42.720;23.336;2023-04-05T07:53:29;-22484.59;;;1.49;100.00
5296;BME280;2670;42.720;23.336;2023-04-05T07:55:56;-22484.44;;;1.48;100.00
5296;BME280;2670;42.720;23.336;2023-04-05T07:58:23;-22487.16;;;1.58;100.00
5296;BME280;2670;42.720;23.336;2023-04-05T08:00:50;-22485.50;;;1.52;100.00
5296;BME280;2670;42.720;23.336;2023-04-05T08:03:19;-22487.44;;;1.59;100.00
5296;BME280;2670;42.720;23.336;2023-04-05T08:05:46;-22485.50;;;1.52;100.00
5296;BME280;2670;42.720;23.336;2023-04-05T08:08:13;-22487.91;;;1.60;100.00
5296;BME280;2670;42.720;23.336;2023-04-05T08:10:40;-22489.09;;;1.64;100.00
5296;BME280;2670;42.720;23.336;2023-04-05T08:13:07;-22491.19;;;1.71;100.00
5296;BME280;2670;42.720;23.336;2023-04-05T08:15:33;-22487.59;;;1.59;100.00
5296;BME280;2670;42.720;23.336;2023-04-05T08:18:00;-22482.81;;;1.43;100.00
5296;BME280;2670;42.720;23.336;2023-04-05T08:20:28;-22485.06;;;1.51;100.00
5296;BME280;2670;42.720;23.336;2023-04-05T08:22:55;-22483.56;;;1.45;100.00
5296;BME280;2670;42.720;23.336;2023-04-05T08:25:22;-22484.31;;;1.48;100.00
5296;BME280;2670;42.720;23.336;2023-04-05T08:27:48;-22485.50;;;1.52;100.00
5296;BME280;2670;42.720;23.336;2023-04-05T08:30:15;-22484.31;;;1.48;100.00
5296;BME280;2670;42.720;23.336;2023-04-05T08:32:44;-22485.34;;;1.52;100.00
5296;BME280;2670;42.720;23.336;2023-04-05T08:35:10;-22483.84;;;1.46;100.00
5296;BME280;2670;42.720;23.336;2023-04-05T08:37:38;-22483.56;;;1.45;100.00
5296;BME280;2670;42.720;23.336;2023-04-05T08:40:06;-22484.44;;;1.48;100.00
5296;BME280;2670;42.720;23.336;2023-04-05T08:42:36;-22485.78;;;1.53;100.00
5296;BME280;2670;42.720;23.336;2023-04-05T08:45:08;-22485.50;;;1.52;100.00
5296;BME280;2670;42.720;23.336;2023-04-05T08:47:36;-22485.19;;;1.51;100.00
5296;BME280;2670;42.720;23.336;2023-04-05T08:50:03;-22481.47;;;1.38;100.00
5296;BME280;2670;42.720;23.336;2023-04-05T08:52:31;-22484.44;;;1.48;100.00
5296;BME280;2670;42.720;23.336;2023-04-05T08:55:00;-22485.34;;;1.52;100.00
5296;BME280;2670;42.720;23.336;2023-04-05T08:57:28;-22486.84;;;1.57;100.00
5296;BME280;2670;42.720;23.336;2023-04-05T08:59:57;-22483.25;;;1.44;100.00
5296;BME280;2670;42.720;23.336;2023-04-05T09:02:25;-22485.34;;;1.52;100.00
5296;BME280;2670;42.720;23.336;2023-04-05T09:04:52;-22485.34;;;1.52;100.00
5296;BME280;2670;42.720;23.336;2023-04-05T09:07:20;-22485.94;;;1.54;100.00
5296;BME280;2670;42.720;23.336;2023-04-05T09:09:50;-22489.69;;;1.66;100.00
5296;BME280;2670;42.720;23.336;2023-04-05T09:12:20;-22490.00;;;1.67;100.00
5296;BME280;2670;42.720;23.336;2023-04-05T09:14:47;-22488.34;;;1.62;100.00
5296;BME280;2670;42.720;23.336;2023-04-05T09:17:16;-22487.91;;;1.60;100.00
5296;BME280;2670;42.720;23.336;2023-04-05T09:19:43;-22489.53;;;1.66;100.00
5296;BME280;2670;42.720;23.336;2023-04-05T09:22:10;-22487.28;;;1.58;100.00
5296;BME280;2670;42.720;23.336;2023-04-05T09:24:39;-22491.34;;;1.72;100.00
5296;BME280;2670;42.720;23.336;2023-04-05T09:27:07;-22494.03;;;1.81;100.00
5296;BME280;2670;42.720;23.336;2023-04-05T09:29:37;-22497.91;;;1.94;100.00
5296;BME280;2670;42.720;23.336;2023-04-05T09:32:05;-22499.25;;;1.99;100.00
5296;BME280;2670;42.720;23.336;2023-04-05T09:34:33;-22503.44;;;2.13;100.00
5296;BME280;2670;42.720;23.336;2023-04-05T09:37:03;-22505.38;;;2.20;100.00
5296;BME280;2670;42.720;23.336;2023-04-05T09:39:37;-22506.28;;;2.23;100.00
5296;BME280;2670;42.720;23.336;2023-04-05T09:42:05;-22510.91;;;2.39;100.00
5296;BME280;2670;42.720;23.336;2023-04-05T09:44:49;-22511.66;;;2.41;100.00
5296;BME280;2670;42.720;23.336;2023-04-05T09:47:17;-22507.78;;;2.28;100.00
5296;BME280;2670;42.720;23.336;2023-04-05T09:49:44;-22509.56;;;2.34;100.00
5296;BME280;2670;42.720;23.336;2023-04-05T09:52:21;-22511.66;;;2.41;100.00
5296;BME280;2670;42.720;23.336;2023-04-05T09:54:48;-22512.72;;;2.45;100.00
5296;BME280;2670;42.720;23.336;2023-04-05T09:57:15;-22509.56;;;2.34;100.00
5296;BME280;2670;42.720;23.336;2023-04-05T09:59:44;-22512.13;;;2.43;100.00
5296;BME280;2670;42.720;23.336;2023-04-05T10:02:12;-22509.28;;;2.33;100.00
5296;BME280;2670;42.720;23.336;2023-04-05T10:04:39;-22504.03;;;2.15;100.00
5296;BME280;2670;42.720;23.336;2023-04-05T10:07:08;-22505.38;;;2.20;100.00
5296;BME280;2670;42.720;23.336;2023-04-05T10:09:35;-22508.81;;;2.32;100.00
5296;BME280;2670;42.720;23.336;2023-04-05T10:12:04;-22511.81;;;2.42;100.00
5296;BME280;2670;42.720;23.336;2023-04-05T10:14:32;-22516.75;;;2.59;100.00
5296;BME280;2670;42.720;23.336;2023-04-05T10:17:06;-22514.81;;;2.52;100.00
5296;BME280;2670;42.720;23.336;2023-04-05T10:19:44;-22524.50;;;2.85;100.00
5296;BME280;2670;42.720;23.336;2023-04-05T10:22:19;-22535.56;;;3.23;100.00
5296;BME280;2670;42.720;23.336;2023-04-05T10:24:51;-22536.75;;;3.27;100.00
5296;BME280;2670;42.720;23.336;2023-04-05T10:27:23;-22541.69;;;3.44;100.00
5296;BME280;2670;42.720;23.336;2023-04-05T10:30:02;-22545.84;;;3.58;100.00
5296;BME280;2670;42.720;23.336;2023-04-05T10:32:51;-22555.13;;;3.90;100.00
5296;BME280;2670;42.720;23.336;2023-04-05T10:35:30;-22558.38;;;4.01;100.00
5296;BME280;2670;42.720;23.336;2023-04-05T10:38:11;-22548.69;;;3.68;100.00
5296;BME280;2670;42.720;23.336;2023-04-05T10:40:40;-22552.56;;;3.81;100.00
5296;BME280;2670;42.720;23.336;2023-04-05T10:43:14;-22552.72;;;3.82;100.00
5296;BME280;2670;42.720;23.336;2023-04-05T10:45:43;-22552.28;;;3.80;100.00
5296;BME280;2670;42.720;23.336;2023-04-05T10:48:15;-22563.31;;;4.18;100.00
5296;BME280;2670;42.720;23.336;2023-04-05T10:50:47;-22562.28;;;4.14;100.00
5296;BME280;2670;42.720;23.336;2023-04-05T10:53:14;-22559.28;;;4.04;100.00
5296;BME280;2670;42.720;23.336;2023-04-05T10:55:43;-22553.78;;;3.85;100.00
5296;BME280;2670;42.720;23.336;2023-04-05T10:58:09;-22548.41;;;3.67;99.96
5296;BME280;2670;42.720;23.336;2023-04-05T11:00:39;-22555.72;;;3.92;100.00
5296;BME280;2670;42.720;23.336;2023-04-05T11:03:05;-22556.47;;;3.94;98.43
5296;BME280;2670;42.720;23.336;2023-04-05T11:05:33;-22553.47;;;3.84;96.74
5296;BME280;2670;42.720;23.336;2023-04-05T11:08:04;-22552.44;;;3.81;95.27
5296;BME280;2670;42.720;23.336;2023-04-05T11:10:34;-22558.25;;;4.00;94.86
5296;BME280;2670;42.720;23.336;2023-04-05T11:15:38;-22551.53;;;3.78;89.67
5296;BME280;2670;42.720;23.336;2023-04-05T11:18:09;-22549.28;;;3.70;90.01
5296;BME280;2670;42.720;23.336;2023-04-05T11:20:45;-22551.97;;;3.79;90.33
5296;BME280;2670;42.720;23.336;2023-04-05T11:23:15;-22560.94;;;4.10;90.99
5296;BME280;2670;42.720;23.336;2023-04-05T11:25:48;-22568.53;;;4.36;88.95
5296;BME280;2670;42.720;23.336;2023-04-05T11:28:28;-22566.91;;;4.30;88.10
5296;BME280;2670;42.720;23.336;2023-04-05T11:30:56;-22566.44;;;4.29;87.27
5296;BME280;2670;42.720;23.336;2023-04-05T11:33:53;-22575.41;;;4.59;87.91
5296;BME280;2670;42.720;23.336;2023-04-05T11:36:30;-22578.53;;;4.70;87.86
5296;BME280;2670;42.720;23.336;2023-04-05T11:39:32;-22570.94;;;4.44;85.44
5296;BME280;2670;42.720;23.336;2023-04-05T11:42:01;-22565.56;;;4.25;85.63
5296;BME280;2670;42.720;23.336;2023-04-05T11:44:29;-22562.72;;;4.16;86.82
5296;BME280;2670;42.720;23.336;2023-04-05T11:46:59;-22565.56;;;4.25;86.30
5296;BME280;2670;42.720;23.336;2023-04-05T11:49:25;-22572.56;;;4.49;87.10
5296;BME280;2670;42.720;23.336;2023-04-05T11:51:53;-22578.22;;;4.69;85.78
5296;BME280;2670;42.720;23.336;2023-04-05T11:54:32;-22574.81;;;4.57;86.61
5296;BME280;2670;42.720;23.336;2023-04-05T11:56:59;-22570.03;;;4.41;87.22
5296;BME280;2670;42.720;23.336;2023-04-05T11:59:30;-22561.81;;;4.13;88.51
5296;BME280;2670;42.720;23.336;2023-04-05T12:02:00;-22555.72;;;3.92;89.47
5296;BME280;2670;42.720;23.336;2023-04-05T12:04:28;-22555.25;;;3.90;90.71
5296;BME280;2670;42.720;23.336;2023-04-05T12:07:11;-22556.59;;;3.95;90.62
5296;BME280;2670;42.720;23.336;2023-04-05T12:10:05;-22556.75;;;3.95;91.22
5296;BME280;2670;42.720;23.336;2023-04-05T12:12:35;-22557.78;;;3.99;91.21
5296;BME280;2670;42.720;23.336;2023-04-05T12:15:03;-22559.59;;;4.05;91.38
5296;BME280;2670;42.720;23.336;2023-04-05T12:17:42;-22553.31;;;3.84;91.59
5296;BME280;2670;42.720;23.336;2023-04-05T12:20:10;-22555.72;;;3.92;92.62
5296;BME280;2670;42.720;23.336;2023-04-05T12:22:37;-22552.88;;;3.82;92.07
5296;BME280;2670;42.720;23.336;2023-04-05T12:25:07;-22547.50;;;3.64;91.35
5296;BME280;2670;42.720;23.336;2023-04-05T12:27:34;-22547.81;;;3.65;92.29
5296;BME280;2670;42.720;23.336;2023-04-05T12:30:08;-22550.78;;;3.75;91.75
5296;BME280;2670;42.720;23.336;2023-04-05T12:32:39;-22544.97;;;3.55;92.32
5296;BME280;2670;42.720;23.336;2023-04-05T12:35:09;-22545.25;;;3.56;94.83
5296;BME280;2670;42.720;23.336;2023-04-05T12:37:37;-22548.69;;;3.68;92.90
5296;BME280;2670;42.720;23.336;2023-04-05T12:40:06;-22545.84;;;3.58;93.65
5296;BME280;2670;42.720;23.336;2023-04-05T12:42:34;-22546.91;;;3.62;93.93
5296;BME280;2670;42.720;23.336;2023-04-05T12:45:02;-22543.63;;;3.50;94.18
5296;BME280;2670;42.720;23.336;2023-04-05T12:47:32;-22547.06;;;3.62;94.66
5296;BME280;2670;42.720;23.336;2023-04-05T12:50:09;-22536.31;;;3.25;94.87
5296;BME280;2670;42.720;23.336;2023-04-05T12:52:36;-22539.28;;;3.36;94.97
5296;BME280;2670;42.720;23.336;2023-04-05T12:55:03;-22547.06;;;3.62;90.91
5296;BME280;2670;42.720;23.336;2023-04-05T12:57:31;-22549.59;;;3.71;89.06
5296;BME280;2670;42.720;23.336;2023-04-05T12:59:58;-22550.47;;;3.74;89.49
5296;BME280;2670;42.720;23.336;2023-04-05T13:02:25;-22555.13;;;3.90;88.73
5296;BME280;2670;42.720;23.336;2023-04-05T13:04:52;-22553.31;;;3.84;87.97
5296;BME280;2670;42.720;23.336;2023-04-05T13:07:19;-22555.84;;;3.92;87.12
5296;BME280;2670;42.720;23.336;2023-04-05T13:09:45;-22552.28;;;3.80;86.54
5296;BME280;2670;42.720;23.336;2023-04-05T13:12:12;-22541.97;;;3.45;86.99